Seafalcon — 9HA2814 — position and weather

sailwx.info

Track history (hours):
 
Tides and Currents Weather Stations Pressure Air Temp Water Temp Dewpoint Dewpoint Depression Visibility Wind Speed Wind Dir Waves Ship Positions

Seafalcon

Last reported at 2015-Aug-03 06:05 UTC. Time now 2015-Aug-04 11:40 UTC.
Position N 37°40' E 024°27'.

Length 250 m; draft 12.2 m.

Type: Ship (hazmat cat A). MMSI: 256078000.

Date/timePositionNaut miles runAvg speedWind from/ knotsBaromVisibWave heightAir tempDewpointWater temp
2015-Aug-03 06:05N 37°40' E 024°27'  
2015-Jul-30 23:10N 43°03' E 033°38'2612.3
2015-Jul-30 21:04N 43°14' E 034°09'612.2
2015-Jul-30 20:34N 43°17' E 034°17'1212.4
2015-Jul-30 19:34N 43°23' E 034°32'1212.4
2015-Jul-30 18:34N 43°28' E 034°47'1312.5
2015-Jul-30 17:33N 43°34' E 035°02'1212.3
2015-Jul-30 16:34N 43°40' E 035°18'1212.3
2015-Jul-30 15:34N 43°45' E 035°33'1312.6
2015-Jul-30 14:33N 43°51' E 035°48'1312.7
2015-Jul-30 13:33N 43°57' E 036°04'1312.8
2015-Jul-30 12:33N 44°03' E 036°20'1312.8
2015-Jul-30 11:33N 44°08' E 036°36'1312.9
2015-Jul-30 10:33N 44°14' E 036°52'1312.7
2015-Jul-30 09:33N 44°20' E 037°08'1212.3
2015-Jul-30 08:33N 44°25' E 037°23'26 1.7
2015-Jul-29 17:25N 44°42' E 037°50'0 0.0
2015-Jul-29 16:31N 44°42' E 037°50'0 0.0
2015-Jul-29 15:31N 44°42' E 037°50'0 0.0
2015-Jul-29 14:31N 44°42' E 037°50'0 0.0
2015-Jul-29 13:31N 44°42' E 037°50'0 0.0
2015-Jul-29 12:31N 44°42' E 037°50'0 0.0
2015-Jul-29 11:31N 44°42' E 037°50'0 0.0
2015-Jul-29 10:31N 44°42' E 037°50'0 0.0
2015-Jul-29 09:31N 44°42' E 037°50'0 0.0
2015-Jul-29 08:31N 44°42' E 037°50'0 0.2
2015-Jul-29 07:33N 44°42' E 037°50'4 3.9
2015-Jul-29 06:33N 44°39' E 037°51'3 2.8
2015-Jul-29 05:33N 44°36' E 037°52'8 7.9
2015-Jul-29 04:33N 44°30' E 037°44'5 4.7
2015-Jul-29 03:33N 44°30' E 037°37'1 0.5
2015-Jul-29 02:33N 44°29' E 037°37'0 0.5
2015-Jul-29 01:33N 44°29' E 037°38'0 0.3
2015-Jul-29 00:33N 44°29' E 037°38'0 0.3
2015-Jul-28 23:33N 44°29' E 037°39'0 0.3
2015-Jul-28 22:33N 44°29' E 037°39'0 0.3
2015-Jul-28 21:33N 44°29' E 037°38'3 3.3
2015-Jul-28 20:33N 44°26' E 037°38'1 0.4
2015-Jul-28 16:33N 44°27' E 037°36'1 0.6
2015-Jul-28 15:33N 44°27' E 037°35'0 0.5
2015-Jul-28 14:33N 44°26' E 037°35'1 0.5
2015-Jul-28 13:33N 44°26' E 037°35'1 0.7
2015-Jul-28 12:33N 44°25' E 037°35'0 0.5
2015-Jul-28 11:33N 44°25' E 037°35'1 0.5
2015-Jul-28 10:33N 44°24' E 037°36'0 0.4
2015-Jul-28 09:33N 44°24' E 037°36'0 0.3
2015-Jul-28 08:33N 44°24' E 037°36'0 0.4
2015-Jul-28 07:33N 44°24' E 037°37'0 0.2
2015-Jul-28 06:33N 44°24' E 037°37'0 0.2
2015-Jul-28 05:33N 44°24' E 037°37'0 0.4
2015-Jul-28 04:28N 44°25' E 037°37'1 0.6
2015-Jul-28 03:16N 44°25' E 037°36'1 0.5
2015-Jul-28 02:08N 44°25' E 037°35'1 0.5
2015-Jul-28 00:33N 44°25' E 037°34'1 0.4
2015-Jul-27 22:18N 44°25' E 037°33'0 0.3
2015-Jul-27 21:33N 44°25' E 037°33'0 0.4
2015-Jul-27 20:33N 44°24' E 037°33'0 0.3
2015-Jul-27 19:33N 44°24' E 037°33'0 0.2
2015-Jul-27 18:14N 44°24' E 037°33'0 0.1
2015-Jul-27 17:30N 44°24' E 037°33'0 0.1
2015-Jul-27 16:33N 44°24' E 037°33'0 0.1
2015-Jul-27 15:33N 44°24' E 037°33'0 0.1
2015-Jul-27 14:33N 44°24' E 037°33'0 0.1
2015-Jul-27 13:33N 44°24' E 037°33'0 0.2
2015-Jul-27 12:33N 44°24' E 037°33'0 0.4
2015-Jul-27 11:32N 44°24' E 037°33'0 0.4
2015-Jul-27 10:33N 44°24' E 037°32'1 0.5
2015-Jul-27 09:33N 44°23' E 037°31'1 0.6
2015-Jul-27 08:33N 44°23' E 037°31'1 0.5
2015-Jul-27 07:33N 44°22' E 037°30'1 0.6
2015-Jul-27 06:33N 44°22' E 037°30'0 0.5
2015-Jul-27 05:33N 44°21' E 037°30'0 0.4
2015-Jul-27 04:33N 44°21' E 037°30'0 0.4
2015-Jul-27 03:33N 44°21' E 037°30'0 0.2
2015-Jul-27 02:32N 44°21' E 037°30'0 0.2
2015-Jul-27 01:33N 44°21' E 037°30'4 3.8
2015-Jul-27 00:33N 44°25' E 037°29'6 6.3
2015-Jul-26 23:33N 44°31' E 037°27'0 0.2
2015-Jul-26 22:33N 44°31' E 037°27'0 0.3
2015-Jul-26 21:33N 44°31' E 037°27'0 0.3
2015-Jul-26 20:33N 44°31' E 037°26'0 0.5
2015-Jul-26 19:33N 44°31' E 037°26'1 0.5
2015-Jul-26 18:33N 44°31' E 037°25'1 0.7
2015-Jul-26 17:33N 44°31' E 037°24'1 0.7
2015-Jul-26 16:33N 44°30' E 037°23'1 0.6
2015-Jul-26 15:33N 44°30' E 037°22'0 0.4
2015-Jul-26 14:33N 44°30' E 037°22'0 0.4
2015-Jul-26 13:33N 44°29' E 037°22'0 0.4
2015-Jul-26 12:33N 44°29' E 037°22'0 0.4
2015-Jul-26 11:33N 44°29' E 037°23'0 0.4
2015-Jul-26 10:33N 44°28' E 037°23'0 0.3
2015-Jul-26 09:33N 44°28' E 037°23'0 0.2
2015-Jul-26 08:33N 44°28' E 037°23'0 0.4
2015-Jul-26 07:33N 44°28' E 037°24'0 0.3
2015-Jul-26 06:33N 44°28' E 037°24'0 0.2
2015-Jul-26 05:33N 44°28' E 037°25'0 0.1
2015-Jul-26 04:33N 44°28' E 037°25'0 0.1
2015-Jul-26 03:33N 44°28' E 037°25'0 0.2
2015-Jul-26 02:33N 44°28' E 037°24'0 0.3
2015-Jul-26 01:33N 44°28' E 037°24'0 0.4
2015-Jul-26 00:33N 44°28' E 037°24'0 0.4
2015-Jul-25 23:33N 44°27' E 037°23'0 0.3
2015-Jul-25 22:34N 44°27' E 037°23'0 0.3
2015-Jul-25 21:33N 44°27' E 037°23'0 0.2
2015-Jul-25 20:33N 44°26' E 037°23'0 0.1
2015-Jul-25 19:33N 44°26' E 037°23'0 0.1
2015-Jul-25 18:33N 44°26' E 037°23'0 0.1
2015-Jul-25 17:33N 44°27' E 037°23'0 0.2
2015-Jul-25 16:33N 44°27' E 037°23'0 0.3
2015-Jul-25 15:33N 44°27' E 037°23'0 0.4
2015-Jul-25 14:33N 44°27' E 037°23'0 0.5
2015-Jul-25 13:33N 44°28' E 037°24'0 0.3
2015-Jul-25 12:33N 44°28' E 037°24'0 0.2
2015-Jul-25 11:33N 44°28' E 037°24'0 0.1
2015-Jul-25 10:33N 44°28' E 037°24'0 0.2
2015-Jul-25 09:33N 44°28' E 037°24'0 0.4
2015-Jul-25 08:33N 44°28' E 037°24'0 0.5
2015-Jul-25 07:33N 44°27' E 037°24'1 0.6
2015-Jul-25 06:33N 44°26' E 037°24'1 0.5
2015-Jul-25 05:33N 44°26' E 037°24'1 0.6
2015-Jul-25 04:33N 44°25' E 037°24'1 0.7
2015-Jul-25 03:33N 44°25' E 037°24'1 0.7
2015-Jul-25 02:33N 44°24' E 037°24'1 0.8
2015-Jul-25 01:33N 44°23' E 037°25'1 0.7
2015-Jul-25 00:29N 44°23' E 037°25'1 0.7
2015-Jul-24 23:33N 44°23' E 037°26'1 0.8
2015-Jul-24 22:33N 44°22' E 037°27'1 1.0
2015-Jul-24 21:33N 44°22' E 037°29'1 1.0
2015-Jul-24 20:33N 44°22' E 037°30'1 0.9
2015-Jul-24 19:31N 44°22' E 037°31'1 0.9
2015-Jul-24 18:31N 44°22' E 037°33'1 0.8
2015-Jul-24 17:31N 44°23' E 037°34'1 0.7
2015-Jul-24 16:33N 44°23' E 037°34'1 0.7
2015-Jul-24 15:33N 44°24' E 037°35'0 0.4
2015-Jul-24 14:33N 44°24' E 037°35'0 0.3
2015-Jul-24 13:33N 44°24' E 037°35'0 0.3
2015-Jul-24 12:33N 44°25' E 037°36'0 0.2
2015-Jul-24 11:33N 44°25' E 037°36'0 0.0
2015-Jul-24 10:31N 44°25' E 037°36'0 0.1
2015-Jul-24 09:33N 44°25' E 037°36'0 0.2
2015-Jul-24 08:33N 44°24' E 037°36'0 0.2
2015-Jul-24 07:33N 44°24' E 037°36'0 0.2
2015-Jul-24 06:33N 44°24' E 037°37'  
Track history (hours):
 
Tides and Currents Weather Stations Pressure Air Temp Water Temp Dewpoint Dewpoint Depression Visibility Wind Speed Wind Dir Waves Ship Positions

Seafalcon

Last reported at 2015-Aug-03 06:05 UTC. Time now 2015-Aug-04 11:40 UTC.
Position N 37°40' E 024°27'.

Length 250 m; draft 12.2 m.

Type: Ship (hazmat cat A). MMSI: 256078000.

Date/timePositionNaut miles runAvg speedWind from/ knotsBaromVisibWave heightAir tempDewpointWater temp
2015-Aug-03 06:05N 37°40' E 024°27'  
2015-Jul-30 23:10N 43°03' E 033°38'2612.3
2015-Jul-30 21:04N 43°14' E 034°09'612.2
2015-Jul-30 20:34N 43°17' E 034°17'1212.4
2015-Jul-30 19:34N 43°23' E 034°32'1212.4
2015-Jul-30 18:34N 43°28' E 034°47'1312.5
2015-Jul-30 17:33N 43°34' E 035°02'1212.3
2015-Jul-30 16:34N 43°40' E 035°18'1212.3
2015-Jul-30 15:34N 43°45' E 035°33'1312.6
2015-Jul-30 14:33N 43°51' E 035°48'1312.7
2015-Jul-30 13:33N 43°57' E 036°04'1312.8
2015-Jul-30 12:33N 44°03' E 036°20'1312.8
2015-Jul-30 11:33N 44°08' E 036°36'1312.9
2015-Jul-30 10:33N 44°14' E 036°52'1312.7
2015-Jul-30 09:33N 44°20' E 037°08'1212.3
2015-Jul-30 08:33N 44°25' E 037°23'26 1.7
2015-Jul-29 17:25N 44°42' E 037°50'0 0.0
2015-Jul-29 16:31N 44°42' E 037°50'0 0.0
2015-Jul-29 15:31N 44°42' E 037°50'0 0.0
2015-Jul-29 14:31N 44°42' E 037°50'0 0.0
2015-Jul-29 13:31N 44°42' E 037°50'0 0.0
2015-Jul-29 12:31N 44°42' E 037°50'0 0.0
2015-Jul-29 11:31N 44°42' E 037°50'0 0.0
2015-Jul-29 10:31N 44°42' E 037°50'0 0.0
2015-Jul-29 09:31N 44°42' E 037°50'0 0.0
2015-Jul-29 08:31N 44°42' E 037°50'0 0.2
2015-Jul-29 07:33N 44°42' E 037°50'4 3.9
2015-Jul-29 06:33N 44°39' E 037°51'3 2.8
2015-Jul-29 05:33N 44°36' E 037°52'8 7.9
2015-Jul-29 04:33N 44°30' E 037°44'5 4.7
2015-Jul-29 03:33N 44°30' E 037°37'1 0.5
2015-Jul-29 02:33N 44°29' E 037°37'0 0.5
2015-Jul-29 01:33N 44°29' E 037°38'0 0.3
2015-Jul-29 00:33N 44°29' E 037°38'0 0.3
2015-Jul-28 23:33N 44°29' E 037°39'0 0.3
2015-Jul-28 22:33N 44°29' E 037°39'0 0.3
2015-Jul-28 21:33N 44°29' E 037°38'3 3.3
2015-Jul-28 20:33N 44°26' E 037°38'1 0.4
2015-Jul-28 16:33N 44°27' E 037°36'1 0.6
2015-Jul-28 15:33N 44°27' E 037°35'0 0.5
2015-Jul-28 14:33N 44°26' E 037°35'1 0.5
2015-Jul-28 13:33N 44°26' E 037°35'1 0.7
2015-Jul-28 12:33N 44°25' E 037°35'0 0.5
2015-Jul-28 11:33N 44°25' E 037°35'1 0.5
2015-Jul-28 10:33N 44°24' E 037°36'0 0.4
2015-Jul-28 09:33N 44°24' E 037°36'0 0.3
2015-Jul-28 08:33N 44°24' E 037°36'0 0.4
2015-Jul-28 07:33N 44°24' E 037°37'0 0.2
2015-Jul-28 06:33N 44°24' E 037°37'0 0.2
2015-Jul-28 05:33N 44°24' E 037°37'0 0.4
2015-Jul-28 04:28N 44°25' E 037°37'1 0.6
2015-Jul-28 03:16N 44°25' E 037°36'1 0.5
2015-Jul-28 02:08N 44°25' E 037°35'1 0.5
2015-Jul-28 00:33N 44°25' E 037°34'1 0.4
2015-Jul-27 22:18N 44°25' E 037°33'0 0.3
2015-Jul-27 21:33N 44°25' E 037°33'0 0.4
2015-Jul-27 20:33N 44°24' E 037°33'0 0.3
2015-Jul-27 19:33N 44°24' E 037°33'0 0.2
2015-Jul-27 18:14N 44°24' E 037°33'0 0.1
2015-Jul-27 17:30N 44°24' E 037°33'0 0.1
2015-Jul-27 16:33N 44°24' E 037°33'0 0.1
2015-Jul-27 15:33N 44°24' E 037°33'0 0.1
2015-Jul-27 14:33N 44°24' E 037°33'0 0.1
2015-Jul-27 13:33N 44°24' E 037°33'0 0.2
2015-Jul-27 12:33N 44°24' E 037°33'0 0.4
2015-Jul-27 11:32N 44°24' E 037°33'0 0.4
2015-Jul-27 10:33N 44°24' E 037°32'1 0.5
2015-Jul-27 09:33N 44°23' E 037°31'1 0.6
2015-Jul-27 08:33N 44°23' E 037°31'1 0.5
2015-Jul-27 07:33N 44°22' E 037°30'1 0.6
2015-Jul-27 06:33N 44°22' E 037°30'0 0.5
2015-Jul-27 05:33N 44°21' E 037°30'0 0.4
2015-Jul-27 04:33N 44°21' E 037°30'0 0.4
2015-Jul-27 03:33N 44°21' E 037°30'0 0.2
2015-Jul-27 02:32N 44°21' E 037°30'0 0.2
2015-Jul-27 01:33N 44°21' E 037°30'4 3.8
2015-Jul-27 00:33N 44°25' E 037°29'6 6.3
2015-Jul-26 23:33N 44°31' E 037°27'0 0.2
2015-Jul-26 22:33N 44°31' E 037°27'0 0.3
2015-Jul-26 21:33N 44°31' E 037°27'0 0.3
2015-Jul-26 20:33N 44°31' E 037°26'0 0.5
2015-Jul-26 19:33N 44°31' E 037°26'1 0.5
2015-Jul-26 18:33N 44°31' E 037°25'1 0.7
2015-Jul-26 17:33N 44°31' E 037°24'1 0.7
2015-Jul-26 16:33N 44°30' E 037°23'1 0.6
2015-Jul-26 15:33N 44°30' E 037°22'0 0.4
2015-Jul-26 14:33N 44°30' E 037°22'0 0.4
2015-Jul-26 13:33N 44°29' E 037°22'0 0.4
2015-Jul-26 12:33N 44°29' E 037°22'0 0.4
2015-Jul-26 11:33N 44°29' E 037°23'0 0.4
2015-Jul-26 10:33N 44°28' E 037°23'0 0.3
2015-Jul-26 09:33N 44°28' E 037°23'0 0.2
2015-Jul-26 08:33N 44°28' E 037°23'0 0.4
2015-Jul-26 07:33N 44°28' E 037°24'0 0.3
2015-Jul-26 06:33N 44°28' E 037°24'0 0.2
2015-Jul-26 05:33N 44°28' E 037°25'0 0.1
2015-Jul-26 04:33N 44°28' E 037°25'0 0.1
2015-Jul-26 03:33N 44°28' E 037°25'0 0.2
2015-Jul-26 02:33N 44°28' E 037°24'0 0.3
2015-Jul-26 01:33N 44°28' E 037°24'0 0.4
2015-Jul-26 00:33N 44°28' E 037°24'0 0.4
2015-Jul-25 23:33N 44°27' E 037°23'0 0.3
2015-Jul-25 22:34N 44°27' E 037°23'0 0.3
2015-Jul-25 21:33N 44°27' E 037°23'0 0.2
2015-Jul-25 20:33N 44°26' E 037°23'0 0.1
2015-Jul-25 19:33N 44°26' E 037°23'0 0.1
2015-Jul-25 18:33N 44°26' E 037°23'0 0.1
2015-Jul-25 17:33N 44°27' E 037°23'0 0.2
2015-Jul-25 16:33N 44°27' E 037°23'0 0.3
2015-Jul-25 15:33N 44°27' E 037°23'0 0.4
2015-Jul-25 14:33N 44°27' E 037°23'0 0.5
2015-Jul-25 13:33N 44°28' E 037°24'0 0.3
2015-Jul-25 12:33N 44°28' E 037°24'0 0.2
2015-Jul-25 11:33N 44°28' E 037°24'0 0.1
2015-Jul-25 10:33N 44°28' E 037°24'0 0.2
2015-Jul-25 09:33N 44°28' E 037°24'0 0.4
2015-Jul-25 08:33N 44°28' E 037°24'0 0.5
2015-Jul-25 07:33N 44°27' E 037°24'1 0.6
2015-Jul-25 06:33N 44°26' E 037°24'1 0.5
2015-Jul-25 05:33N 44°26' E 037°24'1 0.6
2015-Jul-25 04:33N 44°25' E 037°24'1 0.7
2015-Jul-25 03:33N 44°25' E 037°24'1 0.7
2015-Jul-25 02:33N 44°24' E 037°24'1 0.8
2015-Jul-25 01:33N 44°23' E 037°25'1 0.7
2015-Jul-25 00:29N 44°23' E 037°25'1 0.7
2015-Jul-24 23:33N 44°23' E 037°26'1 0.8
2015-Jul-24 22:33N 44°22' E 037°27'1 1.0
2015-Jul-24 21:33N 44°22' E 037°29'1 1.0
2015-Jul-24 20:33N 44°22' E 037°30'1 0.9
2015-Jul-24 19:31N 44°22' E 037°31'1 0.9
2015-Jul-24 18:31N 44°22' E 037°33'1 0.8
2015-Jul-24 17:31N 44°23' E 037°34'1 0.7
2015-Jul-24 16:33N 44°23' E 037°34'1 0.7
2015-Jul-24 15:33N 44°24' E 037°35'0 0.4
2015-Jul-24 14:33N 44°24' E 037°35'0 0.3
2015-Jul-24 13:33N 44°24' E 037°35'0 0.3
2015-Jul-24 12:33N 44°25' E 037°36'0 0.2
2015-Jul-24 11:33N 44°25' E 037°36'0 0.0
2015-Jul-24 10:31N 44°25' E 037°36'0 0.1
2015-Jul-24 09:33N 44°25' E 037°36'0 0.2
2015-Jul-24 08:33N 44°24' E 037°36'0 0.2
2015-Jul-24 07:33N 44°24' E 037°36'0 0.2
2015-Jul-24 06:33N 44°24' E 037°37'  

Dump ship's entire track history